createdAt,value
2018-05-15T00:01:52.727Z,94815.48
2018-05-15T00:04:21.121Z,94815.70
2018-05-15T00:06:49.706Z,94809.27
2018-05-15T00:09:18.116Z,94815.77
2018-05-15T00:11:46.672Z,94817.50
2018-05-15T00:14:15.168Z,94813.83
2018-05-15T00:16:43.645Z,94822.80
2018-05-15T00:19:12.054Z,94822.30
2018-05-15T00:21:40.486Z,94818.45
2018-05-15T00:24:08.914Z,94827.61
2018-05-15T00:26:37.432Z,94821.19
2018-05-15T00:29:05.951Z,94818.52
2018-05-15T00:31:34.381Z,94819.05
2018-05-15T00:34:07.682Z,94816.46
2018-05-15T00:36:36.268Z,94813.48
2018-05-15T00:39:05.823Z,94816.58
2018-05-15T00:41:34.229Z,94816.87
2018-05-15T00:44:05.680Z,94816.42
2018-05-15T00:46:34.124Z,94815.97
2018-05-15T00:49:02.593Z,94815.88
2018-05-15T00:51:31.030Z,94822.88
2018-05-15T00:53:59.594Z,94821.16
2018-05-15T00:56:27.997Z,94823.70
2018-05-15T00:58:58.115Z,94821.23
2018-05-15T01:01:26.498Z,94819.77
2018-05-15T01:03:54.913Z,94817.06
2018-05-15T01:06:25.367Z,94812.88
2018-05-15T01:08:53.764Z,94808.86
2018-05-15T01:11:22.290Z,94812.29
2018-05-15T01:13:50.670Z,94812.09
2018-05-15T01:16:19.102Z,94810.69
2018-05-15T01:18:47.570Z,94811.25
2018-05-15T01:21:15.926Z,94820.12
2018-05-15T01:23:44.429Z,94818.05
2018-05-15T01:26:12.834Z,94809.65
2018-05-15T01:28:41.252Z,94809.87
2018-05-15T01:31:09.694Z,94812.50
2018-05-15T01:33:38.183Z,94811.27
2018-05-15T01:36:06.665Z,94813.52
2018-05-15T01:38:35.587Z,94814.62
2018-05-15T01:41:03.942Z,94813.95
2018-05-15T01:43:32.349Z,94828.06
2018-05-15T01:46:00.794Z,94820.34
2018-05-15T01:48:29.325Z,94817.67
2018-05-15T01:50:57.912Z,94827.95
2018-05-15T01:53:26.356Z,94819.77
2018-05-15T01:55:54.757Z,94826.59
2018-05-15T01:58:23.141Z,94818.22
2018-05-15T02:00:51.516Z,94822.13
2018-05-15T02:03:19.950Z,94819.78
2018-05-15T02:05:51.254Z,94818.75
2018-05-15T02:08:19.644Z,94824.66
2018-05-15T02:10:48.014Z,94831.06
2018-05-15T02:13:16.398Z,94835.42
2018-05-15T02:15:44.783Z,94826.56
2018-05-15T02:18:13.241Z,94829.69
2018-05-15T02:20:41.734Z,94824.95
2018-05-15T02:23:10.115Z,94823.19
2018-05-15T02:25:38.473Z,94825.55
2018-05-15T02:28:06.918Z,94829.16
2018-05-15T02:30:35.385Z,94820.87
2018-05-15T02:33:03.717Z,94824.20
2018-05-15T02:35:32.093Z,94826.91
2018-05-15T02:38:00.455Z,94826.11
2018-05-15T02:40:40.600Z,94822.08
2018-05-15T02:43:09.154Z,94822.69
2018-05-15T02:45:37.616Z,94810.17
2018-05-15T02:48:06.024Z,94815.88
2018-05-15T02:50:34.425Z,94809.16
2018-05-15T02:53:02.869Z,94812.89
2018-05-15T02:55:31.246Z,94808.24
2018-05-15T02:57:59.726Z,94811.97
2018-05-15T03:00:36.438Z,94807.33
2018-05-15T03:03:05.431Z,94807.28
2018-05-15T03:05:43.577Z,94810.87
2018-05-15T03:08:11.948Z,94803.37
2018-05-15T03:10:40.324Z,94806.47
2018-05-15T03:13:08.716Z,94808.02
2018-05-15T03:15:37.092Z,94806.46
2018-05-15T03:18:10.340Z,94808.07
2018-05-15T03:20:38.845Z,94803.09
2018-05-15T03:23:07.264Z,94800.50
2018-05-15T03:25:35.675Z,94807.91
2018-05-15T03:28:04.953Z,94812.39
2018-05-15T03:30:33.482Z,94818.15
2018-05-15T03:33:01.862Z,94821.44
2018-05-15T03:35:30.254Z,94824.83
2018-05-15T03:37:58.657Z,94822.88
2018-05-15T03:40:27.047Z,94826.03
2018-05-15T03:42:55.478Z,94826.28
2018-05-15T03:45:23.897Z,94822.12
2018-05-15T03:47:52.327Z,94828.60
2018-05-15T03:50:20.762Z,94830.34
2018-05-15T03:52:51.093Z,94834.55
2018-05-15T03:55:19.540Z,94830.95
2018-05-15T03:57:47.941Z,94831.48
2018-05-15T04:00:28.097Z,94831.06
2018-05-15T04:03:08.336Z,94831.38
2018-05-15T04:05:48.626Z,94830.50
2018-05-15T04:08:17.188Z,94836.69
2018-05-15T04:10:45.750Z,94840.69
2018-05-15T04:13:14.637Z,94844.25
2018-05-15T04:15:44.326Z,94836.07
2018-05-15T04:18:12.765Z,94839.55
2018-05-15T04:20:41.169Z,94842.42
2018-05-15T04:23:09.600Z,94837.67
2018-05-15T04:25:38.194Z,94838.15
2018-05-15T04:28:06.688Z,94843.36
2018-05-15T04:30:35.138Z,94840.80
2018-05-15T04:33:03.537Z,94845.61
2018-05-15T04:35:32.786Z,94847.48
2018-05-15T04:38:02.010Z,94852.14
2018-05-15T04:40:31.438Z,94851.31
2018-05-15T04:42:59.850Z,94856.98
2018-05-15T04:45:28.270Z,94864.17
2018-05-15T04:47:56.703Z,94862.13
2018-05-15T04:50:25.182Z,94854.31
2018-05-15T04:52:57.461Z,94863.43
2018-05-15T04:55:25.890Z,94869.78
2018-05-15T04:57:54.460Z,94864.94
2018-05-15T05:00:22.882Z,94869.16
2018-05-15T05:02:51.297Z,94870.87
2018-05-15T05:05:21.581Z,94872.95
2018-05-15T05:07:50.014Z,94876.09
2018-05-15T05:10:18.554Z,94871.94
2018-05-15T05:12:46.945Z,94880.89
2018-05-15T05:15:16.274Z,94871.81
2018-05-15T05:17:44.704Z,94881.94
2018-05-15T05:20:13.114Z,94887.72
2018-05-15T05:22:41.619Z,94887.37
2018-05-15T05:25:10.003Z,94887.03
2018-05-15T05:27:43.562Z,94889.43
2018-05-15T05:30:12.039Z,94897.22
2018-05-15T05:32:40.484Z,94901.14
2018-05-15T05:35:08.946Z,94894.87
2018-05-15T05:37:37.398Z,94895.66
2018-05-15T05:40:05.937Z,94895.56
2018-05-15T05:42:34.373Z,94894.15
2018-05-15T05:45:02.848Z,94895.19
2018-05-15T05:47:31.270Z,94901.17
2018-05-15T05:49:59.623Z,94905.59
2018-05-15T05:52:28.168Z,94901.22
2018-05-15T05:54:56.652Z,94903.47
2018-05-15T05:57:25.059Z,94906.41
2018-05-15T05:59:53.464Z,94909.64
2018-05-15T06:02:21.919Z,94905.54
2018-05-15T06:04:50.693Z,94910.42
2018-05-15T06:07:20.120Z,94917.73
2018-05-15T06:09:48.562Z,94919.55
2018-05-15T06:12:16.988Z,94923.50
2018-05-15T06:14:45.537Z,94922.59
2018-05-15T06:17:13.982Z,94917.87
2018-05-15T06:19:42.506Z,94925.63
2018-05-15T06:22:11.046Z,94928.67
2018-05-15T06:24:39.496Z,94930.75
2018-05-15T06:27:07.943Z,94923.25
2018-05-15T06:29:36.517Z,94935.15
2018-05-15T06:32:05.001Z,94929.62
2018-05-15T06:34:34.465Z,94931.98
2018-05-15T06:37:03.046Z,94935.81
2018-05-15T06:39:31.502Z,94932.02
2018-05-15T06:41:59.934Z,94942.89
2018-05-15T06:44:28.417Z,94930.97
2018-05-15T06:46:56.851Z,94930.69
2018-05-15T06:49:25.323Z,94934.71
2018-05-15T06:51:53.761Z,94936.88
2018-05-15T06:54:22.188Z,94936.58
2018-05-15T06:56:50.738Z,94940.30
2018-05-15T06:59:19.179Z,94931.58
2018-05-15T07:01:47.985Z,94939.28
2018-05-15T07:04:16.392Z,94943.50
2018-05-15T07:06:44.922Z,94939.77
2018-05-15T07:09:13.481Z,94941.92
2018-05-15T07:11:41.980Z,94935.59
2018-05-15T07:14:10.637Z,94935.67
2018-05-15T07:16:39.031Z,94944.91
2018-05-15T07:19:07.425Z,94941.08
2018-05-15T07:21:35.877Z,94947.05
2018-05-15T07:24:04.365Z,94942.36
2018-05-15T07:26:34.024Z,94938.54
2018-05-15T07:29:03.394Z,94941.28
2018-05-15T07:31:31.858Z,94938.62
2018-05-15T07:34:00.318Z,94940.61
2018-05-15T07:36:28.725Z,94944.41
2018-05-15T07:38:57.366Z,94944.45
2018-05-15T07:41:25.923Z,94935.88
2018-05-15T07:43:54.423Z,94943.97
2018-05-15T07:46:22.850Z,94950.70
2018-05-15T07:48:51.288Z,94942.39
2018-05-15T07:51:19.820Z,94945.30
2018-05-15T07:53:48.255Z,94953.17
2018-05-15T07:56:16.657Z,94950.63
2018-05-15T07:58:45.329Z,94955.27
2018-05-15T08:01:13.864Z,94949.67
2018-05-15T08:03:42.255Z,94946.36
2018-05-15T08:06:10.915Z,94963.28
2018-05-15T08:08:39.395Z,94958.53
2018-05-15T08:11:08.815Z,94961.49
2018-05-15T08:13:37.442Z,94966.16
2018-05-15T08:16:06.129Z,94960.89
2018-05-15T08:18:34.625Z,94966.76
2018-05-15T08:21:03.159Z,94963.66
2018-05-15T08:23:40.452Z,94963.13
2018-05-15T08:26:08.946Z,94966.76
2018-05-15T08:28:37.459Z,94969.98
2018-05-15T08:31:06.106Z,94968.25
2018-05-15T08:33:34.534Z,94972.28
2018-05-15T08:36:04.897Z,94979.69
2018-05-15T08:38:33.552Z,94978.19
2018-05-15T08:41:01.964Z,94980.86
2018-05-15T08:43:30.387Z,94985.02
2018-05-15T08:45:58.848Z,94979.19
2018-05-15T08:48:27.306Z,94981.97
2018-05-15T08:50:55.740Z,94986.60
2018-05-15T08:53:24.126Z,94977.66
2018-05-15T08:55:52.594Z,94974.72
2018-05-15T08:58:21.299Z,94972.88
2018-05-15T09:00:50.381Z,94974.02
2018-05-15T09:03:18.916Z,94977.38
2018-05-15T09:05:47.339Z,94975.12
2018-05-15T09:08:15.755Z,94977.98
2018-05-15T09:10:44.266Z,94984.67
2018-05-15T09:13:12.749Z,94990.81
2018-05-15T09:18:24.535Z,94984.34
2018-05-15T09:20:52.941Z,94984.77
2018-05-15T09:23:23.254Z,94989.88
2018-05-15T09:25:51.681Z,94986.91
2018-05-15T09:28:20.110Z,94993.77
2018-05-15T09:30:51.487Z,94995.33
2018-05-15T09:33:19.942Z,94994.28
2018-05-15T09:35:48.379Z,95002.71
2018-05-15T09:38:16.839Z,94996.98
2018-05-15T09:40:46.607Z,94986.84
2018-05-15T09:43:26.706Z,94980.75
2018-05-15T09:45:55.131Z,94994.67
2018-05-15T09:48:23.516Z,94988.91
2018-05-15T09:50:54.037Z,95000.23
2018-05-15T09:53:22.669Z,94996.08
2018-05-15T09:55:51.553Z,94984.45
2018-05-15T09:58:20.260Z,94988.89
2018-05-15T10:00:50.008Z,95003.23
2018-05-15T10:03:18.713Z,95001.88
2018-05-15T10:05:47.233Z,94986.69
2018-05-15T10:08:15.863Z,94981.32
2018-05-15T10:10:44.289Z,95005.00
2018-05-15T10:13:13.707Z,95003.44
2018-05-15T10:15:44.753Z,94996.68
2018-05-15T10:18:13.338Z,94999.56
2018-05-15T10:20:45.614Z,94991.73
2018-05-15T10:23:14.007Z,94990.86
2018-05-15T10:25:42.446Z,94987.89
2018-05-15T10:28:11.809Z,94979.73
2018-05-15T10:30:40.177Z,94980.16
2018-05-15T10:33:08.614Z,94978.90
2018-05-15T10:35:36.982Z,94989.26
2018-05-15T10:40:43.571Z,94983.63
2018-05-15T10:43:12.346Z,94975.63
2018-05-15T10:45:40.994Z,94970.82
2018-05-15T10:48:13.176Z,94998.22
2018-05-15T10:50:41.688Z,94975.19
2018-05-15T10:53:10.170Z,94973.75
2018-05-15T10:55:38.556Z,94971.66
2018-05-15T10:58:07.098Z,94972.09
2018-05-15T11:00:35.518Z,94964.54
2018-05-15T11:03:04.109Z,94969.39
2018-05-15T11:05:32.563Z,94971.34
2018-05-15T11:08:02.168Z,94974.15
2018-05-15T11:10:30.752Z,94979.99
2018-05-15T11:12:59.229Z,94976.83
2018-05-15T11:15:27.809Z,94982.69
2018-05-15T11:17:56.227Z,94984.45
2018-05-15T11:20:36.409Z,94978.10
2018-05-15T11:23:16.789Z,94987.03
2018-05-15T11:25:45.226Z,94976.30
2018-05-15T11:28:13.659Z,94980.02
2018-05-15T11:30:42.156Z,94975.07
2018-05-15T11:33:10.656Z,94977.75
2018-05-15T11:35:39.171Z,94978.23
2018-05-15T11:38:07.630Z,94984.67
2018-05-15T11:40:36.067Z,94976.13
2018-05-15T11:43:04.483Z,94978.47
2018-05-15T11:45:32.889Z,94965.98
2018-05-15T11:48:03.396Z,94969.00
2018-05-15T11:50:32.712Z,94969.21
2018-05-15T11:53:00.818Z,94967.74
2018-05-15T11:55:28.708Z,94960.73
2018-05-15T11:57:57.322Z,94950.22
2018-05-15T12:00:25.771Z,94958.05
2018-05-15T12:02:54.236Z,94954.08
2018-05-15T12:05:22.802Z,94956.98
2018-05-15T12:07:51.198Z,94957.41
2018-05-15T12:10:19.574Z,94964.88
2018-05-15T12:12:48.846Z,94958.70
2018-05-15T12:15:17.362Z,94952.93
2018-05-15T12:17:45.861Z,94963.08
2018-05-15T12:20:14.428Z,94954.77
2018-05-15T12:22:42.838Z,94952.70
2018-05-15T12:25:11.309Z,94961.81
2018-05-15T12:27:43.321Z,94965.17
2018-05-15T12:30:09.538Z,94960.12
2018-05-15T12:32:37.933Z,94964.20
2018-05-15T12:35:06.325Z,94953.48
2018-05-15T12:37:34.797Z,94947.63
2018-05-15T12:40:03.316Z,94941.73
2018-05-15T12:42:31.839Z,94933.32
2018-05-15T12:45:01.293Z,94937.44
2018-05-15T12:47:29.768Z,94935.34
2018-05-15T12:49:58.398Z,94928.48
2018-05-15T12:52:26.954Z,94928.95
2018-05-15T12:54:56.581Z,94926.38
2018-05-15T12:57:25.094Z,94923.54
2018-05-15T12:59:53.582Z,94925.05
2018-05-15T13:11:25.438Z,94919.25
2018-05-15T13:13:53.845Z,94923.56
2018-05-15T13:16:22.301Z,94917.64
2018-05-15T13:18:50.816Z,94915.72
2018-05-15T13:21:19.331Z,94915.50
2018-05-15T13:23:47.831Z,94923.81
2018-05-15T13:26:16.329Z,94909.83
2018-05-15T13:28:44.858Z,94912.77
2018-05-15T13:31:13.402Z,94908.98
2018-05-15T13:33:41.890Z,94909.34
2018-05-15T13:36:10.479Z,94907.27
2018-05-15T13:38:38.912Z,94905.11
2018-05-15T13:41:07.392Z,94898.41
2018-05-15T13:43:35.863Z,94901.37
2018-05-15T13:46:04.280Z,94898.30
2018-05-15T13:48:32.782Z,94892.37
2018-05-15T13:51:01.270Z,94890.25
2018-05-15T13:53:29.807Z,94888.84
2018-05-15T13:55:58.639Z,94895.17
2018-05-15T13:58:27.106Z,94885.55
2018-05-15T14:00:55.624Z,94884.30
2018-05-15T14:03:24.195Z,94896.52
2018-05-15T14:05:52.658Z,94899.40
2018-05-15T14:08:21.073Z,94904.17
2018-05-15T14:10:49.638Z,94895.64
2018-05-15T14:13:18.261Z,94888.80
2018-05-15T14:15:46.728Z,94895.92
2018-05-15T14:18:15.186Z,94893.27
2018-05-15T14:20:43.749Z,94894.84
2018-05-15T14:23:12.147Z,94887.78
2018-05-15T14:25:40.581Z,94885.73
2018-05-15T14:28:09.108Z,94877.49
2018-05-15T14:30:37.571Z,94871.36
2018-05-15T14:33:05.999Z,94872.63
2018-05-15T14:35:34.473Z,94871.87
2018-05-15T14:38:02.913Z,94865.52
2018-05-15T14:40:31.317Z,94861.48
2018-05-15T14:43:11.590Z,94857.20
2018-05-15T14:45:39.953Z,94860.50
2018-05-15T14:48:08.480Z,94870.33
2018-05-15T14:50:48.697Z,94868.00
2018-05-15T14:53:17.117Z,94863.27
2018-05-15T14:55:45.647Z,94858.36
2018-05-15T14:58:14.177Z,94861.19
2018-05-15T15:00:42.582Z,94860.96
2018-05-15T15:03:10.991Z,94857.27
2018-05-15T15:05:39.451Z,94864.98
2018-05-15T15:08:07.870Z,94863.03
2018-05-15T15:10:36.338Z,94856.95
2018-05-15T15:13:04.783Z,94855.11
2018-05-15T15:15:33.210Z,94859.50
2018-05-15T15:18:01.683Z,94853.42
2018-05-15T15:20:30.080Z,94854.58
2018-05-15T15:22:58.558Z,94854.69
2018-05-15T15:25:26.971Z,94851.98
2018-05-15T15:27:55.562Z,94842.80
2018-05-15T15:30:24.046Z,94841.72
2018-05-15T15:32:52.542Z,94836.92
2018-05-15T15:35:21.035Z,94833.14
2018-05-15T15:37:49.493Z,94843.70
2018-05-15T15:40:17.922Z,94849.73
2018-05-15T15:42:46.388Z,94830.14
2018-05-15T15:45:14.862Z,94826.49
2018-05-15T15:47:43.302Z,94830.67
2018-05-15T15:50:11.708Z,94829.25
2018-05-15T15:52:40.160Z,94835.03
2018-05-15T15:55:08.666Z,94827.28
2018-05-15T15:57:52.462Z,94831.73
2018-05-15T16:00:22.529Z,94827.00
2018-05-15T16:02:53.646Z,94824.94
2018-05-15T16:05:22.088Z,94824.66
2018-05-15T16:07:50.786Z,94832.72
2018-05-15T16:10:19.229Z,94819.97
2018-05-15T16:12:47.637Z,94819.50
2018-05-15T16:15:16.131Z,94820.25
2018-05-15T16:17:44.653Z,94818.63
2018-05-15T16:20:13.063Z,94818.43
2018-05-15T16:22:41.616Z,94824.34
2018-05-15T16:25:09.988Z,94818.21
2018-05-15T16:27:38.383Z,94815.09
2018-05-15T16:30:06.998Z,94815.08
2018-05-15T16:32:35.633Z,94817.53
2018-05-15T16:35:04.085Z,94810.06
2018-05-15T16:37:32.675Z,94811.75
2018-05-15T16:40:01.118Z,94815.08
2018-05-15T16:42:29.615Z,94813.59
2018-05-15T16:44:58.277Z,94814.64
2018-05-15T16:47:26.907Z,94812.88
2018-05-15T16:49:55.381Z,94806.22
2018-05-15T16:52:23.818Z,94809.17
2018-05-15T16:54:52.793Z,94811.33
2018-05-15T16:57:21.228Z,94806.58
2018-05-15T16:59:49.829Z,94804.71
2018-05-15T17:02:18.270Z,94810.94
2018-05-15T17:04:46.683Z,94802.95
2018-05-15T17:07:15.158Z,94800.96
2018-05-15T17:09:43.615Z,94800.23
2018-05-15T17:12:12.118Z,94800.34
2018-05-15T17:14:42.473Z,94804.77
2018-05-15T17:17:10.988Z,94806.97
2018-05-15T17:19:39.447Z,94797.75
2018-05-15T17:22:07.881Z,94800.23
2018-05-15T17:24:36.671Z,94807.81
2018-05-15T17:27:05.117Z,94802.34
2018-05-15T17:29:33.555Z,94800.83
2018-05-15T17:32:02.083Z,94800.95
2018-05-15T17:34:31.689Z,94801.20
2018-05-15T17:37:00.408Z,94795.06
2018-05-15T17:39:28.971Z,94798.45
2018-05-15T17:41:57.510Z,94798.46
2018-05-15T17:44:26.029Z,94797.97
2018-05-15T17:46:54.556Z,94796.50
2018-05-15T17:49:23.069Z,94793.23
2018-05-15T17:51:51.523Z,94794.10
2018-05-15T17:54:19.942Z,94801.16
2018-05-15T17:56:48.429Z,94791.36
2018-05-15T17:59:16.835Z,94797.70
2018-05-15T18:01:45.325Z,94788.02
2018-05-15T18:04:13.962Z,94793.44
2018-05-15T18:06:42.459Z,94789.15
2018-05-15T18:09:10.980Z,94785.09
2018-05-15T18:11:41.416Z,94788.73
2018-05-15T18:14:09.901Z,94792.79
2018-05-15T18:16:38.326Z,94785.53
2018-05-15T18:19:06.802Z,94796.56
2018-05-15T18:21:35.269Z,94800.35
2018-05-15T18:24:03.730Z,94799.95
2018-05-15T18:26:32.279Z,94794.36
2018-05-15T18:29:00.804Z,94793.08
2018-05-15T18:31:29.264Z,94786.68
2018-05-15T18:33:57.774Z,94790.66
2018-05-15T18:36:26.319Z,94795.70
2018-05-15T18:38:54.894Z,94793.83
2018-05-15T18:41:23.323Z,94790.47
2018-05-15T18:43:51.769Z,94793.73
2018-05-15T18:46:20.306Z,94792.70
2018-05-15T18:48:49.022Z,94789.88
2018-05-15T18:51:17.525Z,94792.36
2018-05-15T18:53:45.969Z,94794.06
2018-05-15T18:56:14.433Z,94795.77
2018-05-15T18:58:42.954Z,94794.63
2018-05-15T19:01:15.203Z,94790.54
2018-05-15T19:03:43.732Z,94791.49
2018-05-15T19:06:14.070Z,94793.73
2018-05-15T19:08:42.440Z,94794.86
2018-05-15T19:11:10.838Z,94797.08
2018-05-15T19:13:39.399Z,94799.38
2018-05-15T19:16:07.941Z,94797.89
2018-05-15T19:18:37.624Z,94800.05
2018-05-15T19:21:05.991Z,94800.34
2018-05-15T19:23:34.382Z,94800.34
2018-05-15T19:26:02.793Z,94798.45
2018-05-15T19:28:31.279Z,94806.53
2018-05-15T19:30:59.708Z,94806.31
2018-05-15T19:33:33.745Z,94797.55
2018-05-15T19:36:07.751Z,94795.95
2018-05-15T19:38:36.214Z,94804.07
2018-05-15T19:41:06.524Z,94804.63
2018-05-15T19:43:34.926Z,94801.24
2018-05-15T19:46:03.323Z,94800.66
2018-05-15T19:48:31.833Z,94807.97
2018-05-15T19:51:00.435Z,94804.40
2018-05-15T19:53:28.890Z,94805.22
2018-05-15T19:55:57.648Z,94799.00
2018-05-15T19:58:26.131Z,94798.67
2018-05-15T20:00:54.677Z,94795.41
2018-05-15T20:03:23.166Z,94793.81
2018-05-15T20:05:51.546Z,94794.03
2018-05-15T20:08:20.077Z,94794.28
2018-05-15T20:10:48.481Z,94800.18
2018-05-15T20:13:16.891Z,94842.84
2018-05-15T20:15:45.525Z,94828.38
2018-05-15T20:18:14.070Z,94843.08
2018-05-15T20:20:42.574Z,94846.86
2018-05-15T20:23:11.144Z,94846.29
2018-05-15T20:25:39.985Z,94852.64
2018-05-15T20:28:08.396Z,94859.38
2018-05-15T20:30:37.000Z,94869.00
2018-05-15T20:33:05.741Z,94876.56
2018-05-15T20:35:34.247Z,94888.41
2018-05-15T20:38:02.775Z,94899.20
2018-05-15T20:40:31.292Z,94903.13
2018-05-15T20:42:59.887Z,94887.44
2018-05-15T20:45:28.417Z,94894.13
2018-05-15T20:47:57.684Z,94884.94
2018-05-15T20:50:26.274Z,94879.84
2018-05-15T20:52:54.841Z,94862.36
2018-05-15T20:55:24.910Z,94856.55
2018-05-15T20:57:53.459Z,94865.34
2018-05-15T21:00:22.015Z,94871.47
2018-05-15T21:02:50.495Z,94860.83
2018-05-15T21:05:19.014Z,94858.66
2018-05-15T21:07:47.390Z,94850.70
2018-05-15T21:10:15.983Z,94863.41
2018-05-15T21:12:44.382Z,94857.84
2018-05-15T21:15:12.915Z,94856.21
2018-05-15T21:17:41.203Z,94861.20
2018-05-15T21:20:09.629Z,94865.76
2018-05-15T21:22:38.010Z,94859.34
2018-05-15T21:25:06.542Z,94853.96
2018-05-15T21:27:34.980Z,94855.59
2018-05-15T21:30:03.380Z,94853.23
2018-05-15T21:32:31.762Z,94847.33
2018-05-15T21:35:00.307Z,94839.61
2018-05-15T21:37:28.790Z,94834.48
2018-05-15T21:39:57.320Z,94838.55
2018-05-15T21:42:25.759Z,94851.28
2018-05-15T21:44:54.127Z,94851.54
2018-05-15T21:47:22.618Z,94853.80
2018-05-15T21:49:51.489Z,94847.25
2018-05-15T21:52:20.417Z,94838.88
2018-05-15T21:54:48.832Z,94853.71
2018-05-15T21:57:18.157Z,94848.84
2018-05-15T21:59:46.606Z,94847.38
2018-05-15T22:02:15.079Z,94843.59
2018-05-15T22:04:44.049Z,94847.70
2018-05-15T22:07:12.636Z,94856.41
2018-05-15T22:09:40.973Z,94866.63
2018-05-15T22:12:21.035Z,94865.70
2018-05-15T22:15:07.116Z,94857.47
2018-05-15T22:17:53.387Z,94847.83
2018-05-15T22:20:41.133Z,94853.42
2018-05-15T22:23:14.847Z,94859.67
2018-05-15T22:25:43.870Z,94856.64
2018-05-15T22:28:13.142Z,94843.95
2018-05-15T22:30:41.625Z,94840.08
2018-05-15T22:33:10.024Z,94849.50
2018-05-15T22:35:38.451Z,94845.11
2018-05-15T22:38:06.982Z,94845.08
2018-05-15T22:40:35.366Z,94846.58
2018-05-15T22:43:03.916Z,94842.60
2018-05-15T22:45:32.774Z,94845.08
2018-05-15T22:48:01.249Z,94836.92
2018-05-15T22:50:29.724Z,94839.34
2018-05-15T22:52:58.760Z,94846.63
2018-05-15T22:55:27.137Z,94839.38
2018-05-15T22:57:55.685Z,94840.84
2018-05-15T23:00:24.204Z,94840.16
2018-05-15T23:02:52.666Z,94839.38
2018-05-15T23:05:21.097Z,94841.70
2018-05-15T23:07:49.501Z,94853.09
2018-05-15T23:10:17.881Z,94850.81
2018-05-15T23:12:46.307Z,94855.20
2018-05-15T23:15:14.844Z,94859.89
2018-05-15T23:17:43.250Z,94855.25
2018-05-15T23:20:11.799Z,94845.58
2018-05-15T23:22:43.108Z,94847.31
2018-05-15T23:25:11.513Z,94841.34
2018-05-15T23:27:39.983Z,94845.19
2018-05-15T23:30:08.509Z,94843.91
2018-05-15T23:32:36.990Z,94839.19
2018-05-15T23:35:05.463Z,94833.30
2018-05-15T23:37:33.934Z,94830.48
2018-05-15T23:40:02.423Z,94834.23
2018-05-15T23:42:30.913Z,94826.19
2018-05-15T23:44:59.309Z,94826.09
2018-05-15T23:47:27.686Z,94823.67
2018-05-15T23:49:56.102Z,94824.63
2018-05-15T23:52:24.517Z,94813.66
2018-05-15T23:54:53.320Z,94818.45
2018-05-15T23:57:21.760Z,94814.81
2018-05-15T23:59:50.149Z,94808.91
